Hauptseite
METAR-TAF:

METAR-TAF

Flughäfen :

Kuwait-Stadt, Kuwait

Flughafen Kuwait

Breite: 29-13N, Länge: 047-59E, Höhe: 55 m

Beobachtung

Neuester Wetterbericht von vor 16 Minuten, um 05:00 UTC
Wind 5 kt aus West
Temperatur 18°C
Luftfeuchtigkeit 77%
Luftdruck 1016 hPa
Sichtweite: 5000 m
Himmel klar
(schwach) trockener Dunst

METAR: OKBK 260500Z 27005KT 5000 -HZ SKC 18/14 Q1016 NOSIG

Zeit: 08:16 (05:16 UTC)

Prognose

Neuester Wetterbericht von vor 6 Stunden und 31 Minuten, um 22:45 UTC
Gültige Prognose vom 26 um 00 UTC bis 27 um 06 UTC
Wind 3 kt aus unterschiedlichen Richtungen
Sichtweite: 6000 m
Himmel klar
Zeitweise
vom 26 um 00 UTC bis 26 um 03 UTC
Sichtweite: 3000 m
feuchter Dunst

TAF: OKBK 252245Z 2600/2706 VRB03KT 6000 SKC TEMPO 2600/2603 3000 BR

Wetterbeobachtungen und Prognosen von mehr als 4000 Flughäfen (METAR und TAF Bericht).

Die verfügbaren Stationen werden durch gelbe und rote Markierungen auf der Karte dargestellt.

Führen Sie die Maus auf sie, um den Namen der Station zu sehen.

Darauf klicken, um die Beobachtung von Wetterbeobachtungen und Prognosen zu sehen.

Um die Karte zu ändern : klicken Sie auf den grünen Tasten mit einem schwarzen Kreuz Zum Vergrößern, auf den grünen Button mit einem Gedankenstrich zu verkleinern, oder auf die grünen Pfeile für benachbarte Karten.


METAR-TAF: